Rain radar more information rain snow radar


Visit our other weather sites:

Template documentation
and downloads

And another site



Nearby METAR Reports

   
KTIW - Tacoma, Washington, USA
Distance from station: W 7 mi
Updated: Mar 22 2019 1:53 am
Few Clouds  
Few Clouds  
   Wind: Calm
Wind: Calm
Temperature: 46.4°F
Dew Point: 42.8°F
Humidity: 87%
Barometer: 30.02 inHg
Clouds: Few Clouds
Visibility: 10 mi
Cloud details: Few Clouds 1524 m
KTIW 220853Z AUTO 00000KT 10SM FEW050 08/06 A3002 RMK AO2 SLP167 T00830056 58007
KTCM - Tacoma/Mc Chord, Washington, USA
Distance from station: S 9 mi
Updated: Mar 22 2019 12:58 am
Overcast  
Overcast  
   Wind: Calm
Wind: Calm
Temperature: 48.2°F
Dew Point: 48.2°F
Humidity: 100%
Barometer: 30.03 inHg
Clouds: Overcast
Visibility: 10 mi
Cloud details: Mostly Cloudy 1158 m,
Overcast 1463 m
KTCM 220758Z AUTO 00000KT 10SM BKN038 OVC048 09/09 A3003 RMK AO2 SLP173 T00910089 401580020 FZRANO $
KSEA - Seattle/Metro, Washington, USA
Distance from station: NNE 15 mi
Updated: Mar 22 2019 1:53 am
Overcast  
Overcast  
   Wind: SSE 8.1 mph
Wind: SSE 8.1 mph
Temperature: 51.8°F
Dew Point: 42.8°F
Humidity: 72%
Barometer: 30.01 inHg
Clouds: Overcast
Visibility: 10 mi
Cloud details: Overcast 1463 m
KSEA 220853Z 15007KT 10SM OVC048 11/06 A3001 RMK AO2 SLP170 T01060061 58007
KBFI - Seattle/Boeing, Washington, USA
Distance from station: NNE 21 mi
Updated: Mar 22 2019 1:53 am
Overcast  
Overcast  
   Wind: SSE 6.9 mph
Wind: SSE 6.9 mph
Temperature: 51.8°F
Dew Point: 42.8°F
Humidity: 72%
Barometer: 30.02 inHg
Clouds: Overcast
Visibility: 10 mi
Cloud details: Overcast 1524 m
KBFI 220853Z 15006KT 10SM OVC050 11/06 A3002 RMK AO2 SLP165 T01060056 58006
KOLM - Olympia, Washington, USA
Distance from station: SW 29 mi
Updated: Mar 22 2019 1:54 am
Clear  
Clear  
   Wind: Calm
Wind: Calm
Temperature: 37.4°F
Dew Point: 35.6°F
Humidity: 93%
Barometer: 30.01 inHg
Clouds: Clear
Visibility: 10 mi
Cloud details: Clear m
KOLM 220854Z AUTO 00000KT 10SM CLR 03/02 A3001 RMK AO2 SLP164 T00330022 58011
 

Script developed by  Saratoga-weather.org Adapted for the template by  Weerstation Leuven

You find our weather info also at:

Weather Underground

WeatherlinkIP

Citizen Weather Observer Program (CWOP)

Equipment we use:

Weather-station
Davis VP2

Weather-program
Meteobridge

Provider
MDD Hosting

Davis VP2

Meteobridge

MDD Hosting